KJZP

Pickens County Airport

Jasper, Georgia, USA
METAR KJZP 141315Z AUTO 00000KT 10SM CLR 23/18 A3013 RMK AO2 T02280183 PNO
Observed Flight Rules
Aug-14 @ 13:15 UTC (28 minutes ago) Visual Flight Rules
Visibility Clouds
10 miles
  • Clear skies
Temperatures Readings
Current 23°C / 73°F
Dewpoint 18°C / 64°F
Humidity 74%
Altimeter 30.13" Hg
Pressure 1020 hPa
Elevation 468
METAR KJZP 141315Z AUTO 00000KT 10SM CLR 23/18 A3013 RMK AO2 T02280183 PNO
Observed Flight Rules
Aug-14 @ 13:15 UTC
(28 minutes ago)
VFR
Clouds
  • Clear skies
Temperature Dewpoint
23°C / 73°F 18°C / 64°F
Humidity Altimeter Pressure
74% 30.13" Hg 1020 hPa